Northwest Alabama Regional Airport
KMSL : now visible

Airfield :











YOU CAN JOIN US ON...

 
LOGIN :

Register | Disclaimer

   EN    FR    IT 

 









Legend :    VFR   Marginal VFR   IFR   Intensive IFR   Very Intensive IFR
Visi :
Ceiling :
>= 8 km
>= 3000ft
5 to 8 km
1000 to 3000 ft
1500m to 5 km
500 to 1000 ft
800 to 1500m
200 to 500 ft
< 800m
< 200 ft
Symbols :   Thunderstorms  Fog  Heavy snow  Heavy precipitations  Wind > 20 kt






- Airport Elevation : 551 ft
- IATA code : MSL


KMSL - Northwest Alabama Regional

CURRENT METAR :
  • 291353Z AUTO 06006KT 9SM SCT055 BKN075 07/04 A3001 RMK AO2 RAB28E42 SLP161 P0001 T00720044 $

EXPIRED METARs :
  • 291253Z AUTO 07004KT 9SM OVC080 07/04 A3002 RMK AO2 RAB04E41 SLP164 P0000 T00670039 $
  • 291153Z AUTO 00000KT 10SM OVC050 07/04 A3001 RMK AO2 SLP160 T00720039 10094 20072 53004 $

TAF KMSL
Valid from the 29 at 12:00 until the 30 at 12:00 UTC


291120Z 2912/3012 VRB03KT P6SM VCSH OVC050
FM291800 VRB04KT P6SM -RA OVC045
FM300400 00000KT P6SM OVC025
FM300700 VRB03KT P6SM BKN015



MET'MAP, your aeronautical weather chart ! - Copyright ORBIFLY December 2007 - Disclaimer

ORBIFLY MET'MAP TEAM :

Programming & Development : Alexandra Zaïnal
Concept & original design : Baudouin d'Aumeries
Assistance for programming : Marc-Olivier Méhu
Technical & hardware support : Manuel Goepfert

Contact : metmap@orbifly.com




SOURCES & CREDITS :

   NOAA       Earth
Advisory